Tucumcari ASC Data

Date Time Air Temperature Relative Humidity Dewpoint Windchill Heat Index Wind Speed Wind Dir. Rain Solar Radiation Soil Temperature
2m 2m 3m 3m 10cm
US/Mountain F % F F F MPH deg in MJ/m^2 F
max avg avg
2021-10-14 00:05:00 49.4 37.8 24.7 46.8 49.4 6.3 6.3 5.2 269.4 262.9 0.00 0.0000000 57.7
2021-10-14 00:10:00 49.2 38.3 24.8 46.8 49.2 5.6 6.7 5.7 238.2 261.7 0.00 0.0000000 57.6
2021-10-14 00:15:00 49.1 38.5 24.9 46.8 49.1 5.6 6.7 5.2 249.8 258.6 0.00 0.0000000 57.5
2021-10-14 00:20:00 49.6 37.2 24.6 47.3 49.6 5.8 6.7 5.2 244.3 241.1 0.00 0.0000000 57.4
2021-10-14 00:25:00 50.1 36.1 24.3 50.1 50.1 5.8 7.1 5.4 208.5 219.0 0.00 0.0000000 57.3
2021-10-14 00:30:00 50.6 36.4 24.8 50.6 50.6 2.8 5.1 3.6 222.7 212.4 0.00 0.0000000 57.2
2021-10-14 00:35:00 49.9 37.7 25.1 49.9 49.9 1.0 4.6 2.4 154.0 204.7 0.00 0.0000000 57.2
2021-10-14 00:40:00 49.4 38.1 24.9 49.4 49.4 2.4 3.3 2.1 227.6 198.9 0.00 0.0000000 57.1
2021-10-14 00:45:00 49.3 38.1 24.8 49.3 49.3 2.2 3.8 2.9 268.8 235.5 0.00 0.0000000 57.0
2021-10-14 00:50:00 48.7 40.0 25.4 47.9 48.7 3.3 4.2 3.1 0.4 332.6 0.00 0.0000000 56.9
2021-10-14 00:55:00 48.1 41.3 25.6 46.7 48.1 3.8 4.4 3.2 285.6 310.2 0.00 0.0000000 56.8
2021-10-14 01:00:00 47.3 43.3 26.1 45.5 47.3 4.4 5.3 4.5 327.8 291.9 0.00 0.0000000 56.7
2021-10-14 01:05:00 47.2 42.8 25.7 45.6 47.2 4.0 4.4 3.8 289.9 319.6 0.00 0.0000000 56.6
2021-10-14 01:10:00 47.1 43.9 26.2 46.0 47.1 3.5 4.6 4.0 316.6 294.3 0.00 0.0000000 56.5
2021-10-14 01:15:00 46.7 44.1 26.0 46.7 46.7 2.8 3.7 2.5 327.9 350.7 0.00 0.0000000 56.4
2021-10-14 01:20:00 46.9 42.9 25.5 45.4 46.9 3.8 4.6 3.6 255.5 313.5 0.00 0.0000000 56.3
2021-10-14 01:25:00 47.6 42.4 25.8 44.7 47.6 6.0 6.7 5.3 244.0 236.5 0.00 0.0000000 56.2
2021-10-14 01:30:00 47.3 42.6 25.7 45.1 47.3 4.9 7.1 5.9 253.6 240.3 0.00 0.0000000 56.1
2021-10-14 01:35:00 47.5 42.7 25.9 44.8 47.5 5.8 7.1 5.8 253.8 247.7 0.00 0.0000000 56.0
2021-10-14 01:40:00 47.2 43.7 26.2 45.4 47.2 4.2 6.5 4.9 272.8 257.4 0.00 0.0000000 56.0
2021-10-14 01:45:00 46.6 45.9 26.8 44.9 46.6 4.0 4.9 4.2 329.9 304.9 0.00 0.0000000 55.9
2021-10-14 01:50:00 46.1 46.3 26.6 43.4 46.1 5.3 5.6 4.4 324.6 327.8 0.00 0.0000000 55.8
2021-10-14 01:55:00 45.7 47.7 27.0 42.8 45.7 5.6 6.0 5.5 301.4 308.5 0.00 0.0000000 55.7
2021-10-14 02:00:00 45.1 48.9 27.0 42.0 45.1 5.6 6.0 5.4 299.7 301.8 0.00 0.0000000 55.6
2021-10-14 02:05:00 46.1 46.2 26.6 42.6 46.1 6.7 7.2 6.2 300.8 303.2 0.00 0.0000000 55.5
2021-10-14 02:10:00 46.6 45.7 26.7 43.6 46.6 6.0 7.2 6.5 300.0 300.1 0.00 0.0000000 55.4
2021-10-14 02:15:00 46.5 46.0 26.8 43.4 46.5 6.0 7.2 6.5 308.0 301.3 0.00 0.0000000 55.3
2021-10-14 02:20:00 45.9 47.8 27.2 42.4 45.9 6.5 6.9 6.3 305.2 305.6 0.00 0.0000000 55.3
2021-10-14 02:25:00 45.6 47.8 27.0 42.3 45.6 6.2 7.4 6.4 296.4 305.3 0.00 0.0000000 55.2
2021-10-14 02:30:00 45.3 48.9 27.2 42.3 45.3 5.6 6.3 5.5 286.1 292.1 0.00 0.0000000 55.1
2021-10-14 02:35:00 45.0 49.2 27.1 41.9 45.0 5.6 7.8 5.8 286.4 289.5 0.00 0.0000000 55.0
2021-10-14 02:40:00 46.2 46.3 26.7 42.6 46.2 7.1 9.4 6.8 279.0 286.7 0.00 0.0000000 54.9
2021-10-14 02:45:00 47.0 44.5 26.5 43.2 47.0 7.6 9.9 7.4 292.1 286.1 0.00 0.0000000 54.9
2021-10-14 02:50:00 47.0 45.0 26.7 43.4 47.0 7.2 8.7 6.6 292.6 287.2 0.00 0.0000000 54.8
2021-10-14 02:55:00 46.9 45.2 26.7 43.8 46.9 6.2 7.6 6.3 299.7 288.7 0.00 0.0000000 54.7
2021-10-14 03:00:00 46.2 46.4 26.8 42.3 46.2 7.6 7.6 6.1 289.6 297.8 0.00 0.0000000 54.6
2021-10-14 03:05:00 45.9 47.5 27.0 43.3 45.9 5.1 6.2 5.4 295.4 291.5 0.00 0.0000000 54.6
2021-10-14 03:10:00 45.7 47.6 27.0 42.1 45.7 6.9 7.1 6.2 307.2 307.5 0.00 0.0000000 54.5
2021-10-14 03:15:00 45.9 47.3 26.9 42.5 45.9 6.3 7.2 6.4 322.9 311.0 0.00 0.0000000 54.4
2021-10-14 03:20:00 45.9 47.6 27.1 43.1 45.9 5.5 7.4 6.2 307.5 310.7 0.00 0.0000000 54.3
2021-10-14 03:25:00 45.6 48.3 27.2 42.7 45.6 5.5 6.5 5.7 305.6 307.3 0.00 0.0000000 54.2
2021-10-14 03:30:00 45.4 48.5 27.1 42.5 45.4 5.5 6.0 5.2 286.8 301.8 0.00 0.0000000 54.2
2021-10-14 03:35:00 45.7 47.9 27.1 42.2 45.7 6.7 7.1 5.8 250.9 278.1 0.00 0.0000000 54.1
2021-10-14 03:40:00 45.4 48.8 27.2 42.5 45.4 5.5 8.8 6.6 278.9 268.3 0.00 0.0000000 54.1
2021-10-14 03:45:00 45.4 48.7 27.2 41.9 45.4 6.3 8.7 6.5 257.2 264.8 0.00 0.0000000 54.0
2021-10-14 03:50:00 45.2 49.4 27.4 42.5 45.2 5.1 7.4 5.8 272.5 273.2 0.00 0.0000000 53.9
2021-10-14 03:55:00 44.6 50.9 27.6 42.1 44.6 4.7 5.5 4.9 270.8 277.7 0.00 0.0000000 53.8
2021-10-14 04:00:00 44.6 50.8 27.5 41.8 44.6 5.1 6.2 4.9 257.5 270.1 0.00 0.0000000 53.8
2021-10-14 04:05:00 44.4 51.5 27.6 43.2 44.4 3.1 4.9 4.0 267.0 267.3 0.00 0.0000000 53.7
2021-10-14 04:10:00 44.1 51.9 27.6 44.1 44.1 1.3 3.3 2.2 255.4 256.5 0.00 0.0000000 53.6
2021-10-14 04:15:00 44.4 50.8 27.3 44.4 44.4 1.9 2.1 1.5 327.3 298.3 0.00 0.0000000 53.5
2021-10-14 04:20:00 44.9 49.6 27.2 44.9 44.9 2.2 2.6 2.0 279.6 295.8 0.00 0.0000000 53.5
2021-10-14 04:25:00 45.6 47.3 26.7 45.6 45.6 1.2 3.0 1.9 216.6 238.3 0.00 0.0000000 53.4
2021-10-14 04:30:00 45.7 47.6 26.9 45.7 45.7 1.5 1.9 1.2 1.8 329.7 0.00 0.0000000 53.3
2021-10-14 04:35:00 45.2 48.5 27.0 45.2 45.2 1.2 2.1 1.5 0.0 10.8 0.00 0.0000000 53.2
2021-10-14 04:40:00 45.1 48.5 26.9 45.1 45.1 1.0 1.7 1.3 24.2 1.1 0.00 0.0000000 53.1
2021-10-14 04:45:00 45.1 48.9 27.0 45.1 45.1 1.3 2.2 1.7 302.5 355.2 0.00 0.0000000 53.0
2021-10-14 04:50:00 45.6 47.4 26.7 45.6 45.6 1.9 2.4 1.8 294.5 303.3 0.00 0.0000000 53.0
2021-10-14 04:55:00 45.9 47.1 26.9 45.9 45.9 2.1 3.3 2.3 323.9 303.0 0.00 0.0000000 52.9
2021-10-14 05:00:00 45.9 47.2 26.9 45.9 45.9 1.3 2.6 1.6 269.4 278.7 0.00 0.0000000 52.8
2021-10-14 05:05:00 45.7 47.4 26.9 45.7 45.7 1.0 1.9 1.2 274.5 260.8 0.00 0.0000000 52.7
2021-10-14 05:10:00 45.5 48.1 27.0 45.5 45.5 1.0 1.0 0.1 313.3 294.1 0.00 0.0000000 52.6
2021-10-14 05:15:00 45.1 49.6 27.4 45.1 45.1 1.7 1.7 0.7 277.3 318.4 0.00 0.0000000 52.6
2021-10-14 05:20:00 44.9 49.8 27.2 44.9 44.9 0.8 1.9 1.0 258.3 355.3 0.00 0.0000000 52.5
2021-10-14 05:25:00 44.8 50.2 27.4 44.8 44.8 1.3 3.3 1.9 258.1 255.0 0.00 0.0000000 52.4
2021-10-14 05:30:00 44.8 50.4 27.5 44.8 44.8 2.4 4.7 2.4 261.0 261.4 0.00 0.0000000 52.3
2021-10-14 05:35:00 44.8 50.6 27.6 44.8 44.8 2.6 3.7 2.5 244.7 240.6 0.00 0.0000000 52.3
2021-10-14 05:40:00 44.4 51.5 27.6 44.4 44.4 0.0 2.2 1.7 230.6 215.9 0.00 0.0000000 52.2
2021-10-14 05:45:00 44.3 51.8 27.7 44.3 44.3 0.0 2.8 1.1 171.3 220.6 0.00 0.0000000 52.1
2021-10-14 05:50:00 44.3 51.4 27.4 44.3 44.3 2.1 2.4 1.9 165.0 132.5 0.00 0.0000000 52.0
2021-10-14 05:55:00 44.6 50.6 27.4 43.3 44.6 3.3 3.3 2.6 174.2 166.5 0.00 0.0000000 51.9
2021-10-14 06:00:00 44.9 50.1 27.5 44.9 44.9 2.2 3.8 2.7 185.1 187.3 0.00 0.0000000 51.9
2021-10-14 06:05:00 45.1 49.6 27.4 45.1 45.1 2.4 2.4 1.7 137.3 187.2 0.00 0.0000000 51.8
2021-10-14 06:10:00 45.2 49.3 27.3 45.2 45.2 2.2 4.0 3.0 158.8 173.5 0.00 0.0000000 51.7
2021-10-14 06:15:00 45.1 49.1 27.1 45.1 45.1 2.4 3.0 2.0 220.6 207.6 0.00 0.0000000 51.6
2021-10-14 06:20:00 44.9 49.7 27.2 44.9 44.9 2.4 3.0 2.0 243.7 228.1 0.00 0.0000000 51.6
2021-10-14 06:25:00 44.6 50.6 27.4 44.6 44.6 2.8 2.8 2.3 277.8 292.4 0.00 0.0000000 51.5
2021-10-14 06:30:00 44.0 51.9 27.4 42.7 44.0 3.1 3.1 2.9 272.5 281.4 0.00 0.0000000 51.5
2021-10-14 06:35:00 43.5 53.0 27.5 42.2 43.5 3.1 3.3 2.8 309.9 298.7 0.00 0.0000000 51.4
2021-10-14 06:40:00 43.3 53.5 27.5 43.3 43.3 3.0 3.0 2.5 294.0 310.9 0.00 0.0000000 51.3
2021-10-14 06:45:00 42.9 55.0 27.8 41.5 42.9 3.1 3.1 2.7 300.5 293.5 0.00 0.0000000 51.2
2021-10-14 06:50:00 41.8 57.7 28.0 38.8 41.8 4.7 4.7 3.8 276.6 274.2 0.00 0.0000000 51.2
2021-10-14 06:55:00 41.4 58.4 27.9 39.6 41.4 3.3 4.9 4.2 260.9 254.9 0.00 0.0000000 51.1
2021-10-14 07:00:00 41.6 57.6 27.8 41.6 41.6 2.4 3.3 2.7 252.4 256.6 0.00 0.0000897 51.0
2021-10-14 07:05:00 41.9 56.9 27.8 41.9 41.9 2.6 3.0 2.2 232.9 249.5 0.00 0.0011880 50.9
2021-10-14 07:10:00 42.2 57.1 28.1 42.2 42.2 3.0 4.4 3.0 209.7 231.0 0.00 0.0038498 50.9
2021-10-14 07:15:00 42.1 58.2 28.5 40.4 42.1 3.3 4.4 3.3 191.8 215.9 0.00 0.0108525 50.8
2021-10-14 07:20:00 42.2 58.8 28.8 42.2 42.2 2.8 5.3 3.4 220.1 212.7 0.00 0.0156153 50.7
2021-10-14 07:25:00 42.4 58.1 28.7 42.4 42.4 2.8 3.5 2.8 170.7 183.4 0.00 0.0202813 50.7
2021-10-14 07:30:00 42.8 57.7 28.9 42.8 42.8 2.4 3.8 2.7 217.6 188.2 0.00 0.0249396 50.6
2021-10-14 07:35:00 43.4 56.2 28.8 43.4 43.4 2.2 3.7 2.8 178.2 185.8 0.00 0.0296005 50.6
2021-10-14 07:40:00 44.1 55.4 29.2 42.4 44.1 3.7 3.7 2.3 212.1 192.2 0.00 0.0344168 50.5
2021-10-14 07:45:00 44.6 53.4 28.7 44.6 44.6 2.2 4.2 3.0 169.0 185.7 0.00 0.0388432 50.5
2021-10-14 07:50:00 45.3 52.6 29.0 44.2 45.3 3.1 3.7 3.0 161.9 170.9 0.00 0.0434041 50.5
2021-10-14 07:55:00 45.7 51.4 28.8 43.4 45.7 4.7 4.9 3.6 171.8 165.4 0.00 0.0481800 50.6
2021-10-14 08:00:00 46.2 52.0 29.5 46.2 46.2 2.8 5.5 3.4 236.3 163.0 0.00 0.0527829 50.6
2021-10-14 08:05:00 47.1 48.3 28.6 47.1 47.1 3.0 4.6 3.3 200.6 196.3 0.00 0.0575435 50.6
2021-10-14 08:10:00 47.9 47.7 29.0 46.5 47.9 4.0 4.0 3.3 181.2 186.6 0.00 0.0624328 50.7
2021-10-14 08:15:00 48.3 46.6 28.8 47.6 48.3 3.1 4.6 4.0 199.3 191.4 0.00 0.0670837 50.7
2021-10-14 08:20:00 49.1 47.4 29.9 48.3 49.1 3.3 4.6 3.3 222.6 195.1 0.00 0.0718172 50.8
2021-10-14 08:25:00 49.0 46.7 29.5 47.5 49.0 4.4 5.1 4.0 195.9 198.9 0.00 0.0763558 50.9
2021-10-14 08:30:00 49.2 46.3 29.5 48.5 49.2 3.3 5.1 4.1 203.3 204.5 0.00 0.0812461 51.0
2021-10-14 08:35:00 50.3 44.9 29.6 50.3 50.3 4.0 5.3 3.4 228.1 209.2 0.00 0.0863520 51.1
2021-10-14 08:40:00 50.9 45.0 30.3 50.9 50.9 3.7 5.3 3.9 197.8 208.6 0.00 0.0911613 51.3
2021-10-14 08:45:00 51.7 42.6 29.7 51.7 51.7 4.4 5.8 4.3 220.9 220.0 0.00 0.0962050 51.4
2021-10-14 08:50:00 52.3 42.6 30.3 52.3 52.3 2.4 4.9 3.7 193.0 216.8 0.00 0.1008562 51.5
2021-10-14 08:55:00 53.8 39.6 29.8 53.8 53.8 5.8 6.0 4.0 208.9 200.8 0.00 0.1058436 51.7
2021-10-14 09:00:00 54.7 37.4 29.1 54.7 54.7 6.2 6.9 5.3 213.3 199.5 0.00 0.1098709 51.8
2021-10-14 09:05:00 55.4 36.9 29.5 55.4 55.4 4.6 6.9 5.5 180.7 194.0 0.00 0.1161975 51.9
2021-10-14 09:10:00 56.0 35.9 29.3 56.0 56.0 4.2 6.2 4.5 165.7 187.8 0.00 0.1214447 52.0
2021-10-14 09:15:00 56.9 34.0 28.8 56.9 56.9 6.2 7.2 4.6 251.7 201.3 0.00 0.1262898 52.1
2021-10-14 09:20:00 58.6 29.1 26.5 58.6 58.6 11.0 12.4 7.5 264.4 223.7 0.00 0.1316167 52.1
2021-10-14 09:25:00 59.5 29.1 27.3 59.5 59.5 6.0 10.5 8.0 236.4 240.2 0.00 0.1367373 52.2
2021-10-14 09:30:00 59.9 29.5 27.9 59.9 59.9 7.4 10.1 7.8 264.1 240.6 0.00 0.1412642 52.2
2021-10-14 09:35:00 60.2 28.6 27.4 60.2 60.2 9.2 10.3 8.1 241.6 246.9 0.00 0.1456820 52.3
2021-10-14 09:40:00 60.4 28.7 27.8 60.4 60.4 10.3 11.0 7.8 218.6 234.6 0.00 0.1500133 52.3
2021-10-14 09:45:00 60.6 29.1 28.2 60.6 60.6 8.7 12.2 8.7 257.0 239.6 0.00 0.1545212 52.4
2021-10-14 09:50:00 61.7 27.7 28.0 61.7 61.7 6.2 10.6 7.2 233.7 232.0 0.00 0.1588375 52.4
2021-10-14 09:55:00 62.2 27.6 28.3 62.2 62.2 8.3 11.0 7.7 210.3 241.7 0.00 0.1634553 52.5
2021-10-14 10:00:00 62.2 27.2 28.0 62.2 62.2 7.2 10.5 8.5 224.1 238.3 0.00 0.1674887 52.6
2021-10-14 10:05:00 62.5 26.4 27.5 62.5 62.5 11.7 13.3 9.7 219.9 225.2 0.00 0.1716777 52.7
2021-10-14 10:10:00 62.3 26.8 27.7 62.3 62.3 11.5 11.7 9.7 197.6 224.8 0.00 0.1756691 52.8
2021-10-14 10:15:00 63.6 26.1 28.1 63.6 63.6 8.0 12.2 9.0 254.9 238.4 0.00 0.1798745 53.0
2021-10-14 10:20:00 64.1 25.6 28.1 64.1 64.1 10.8 12.2 9.2 275.9 236.8 0.00 0.1836397 53.3
2021-10-14 10:25:00 64.1 25.2 27.7 64.1 64.1 8.7 14.0 10.1 260.2 248.9 0.00 0.1875770 53.6
2021-10-14 10:30:00 64.6 26.3 29.2 64.6 64.6 8.7 12.6 8.9 309.2 254.6 0.00 0.1914393 54.0
2021-10-14 10:35:00 63.7 27.0 29.0 63.7 63.7 16.5 16.7 9.4 294.7 309.5 0.00 0.1944529 54.4
2021-10-14 10:40:00 63.7 26.6 28.7 63.7 63.7 11.3 11.3 7.9 287.5 287.8 0.00 0.1975528 54.8
2021-10-14 10:45:00 63.2 28.8 30.3 63.2 63.2 8.8 14.2 8.8 303.7 297.4 0.00 0.2008331 55.2
2021-10-14 10:50:00 63.4 30.1 31.6 63.4 63.4 7.4 11.0 7.7 309.8 315.0 0.00 0.2039477 55.7
2021-10-14 10:55:00 63.1 29.6 30.8 63.1 63.1 10.3 10.3 7.8 0.8 327.7 0.00 0.2066887 56.1
2021-10-14 11:00:00 63.2 29.0 30.5 63.2 63.2 5.6 10.3 7.6 315.2 347.9 0.00 0.2095248 56.6
2021-10-14 11:05:00 63.4 29.3 30.9 63.4 63.4 7.8 10.5 6.7 344.2 350.5 0.00 0.2121185 57.0
2021-10-14 11:10:00 63.2 29.5 30.8 63.2 63.2 6.9 8.8 7.3 347.2 353.4 0.00 0.2144147 57.4
2021-10-14 11:15:00 63.4 29.0 30.6 63.4 63.4 7.1 8.8 6.4 334.3 337.2 0.00 0.2170454 57.8
2021-10-14 11:20:00 62.9 28.3 29.6 62.9 62.9 8.3 11.3 8.0 10.3 350.4 0.00 0.2192971 58.3
2021-10-14 11:25:00 63.3 27.7 29.4 63.3 63.3 6.2 11.0 8.2 294.7 331.0 0.00 0.2219881 58.7
2021-10-14 11:30:00 63.3 27.3 29.0 63.3 63.3 9.7 9.9 6.5 319.8 325.1 0.00 0.2236885 59.1
2021-10-14 11:35:00 63.8 27.1 29.2 63.8 63.8 4.6 9.0 6.3 25.7 347.4 0.00 0.2253934 59.5
2021-10-14 11:40:00 64.7 26.2 29.2 64.7 64.7 4.6 8.1 5.7 38.8 346.4 0.00 0.2270909 59.9
2021-10-14 11:45:00 64.1 25.9 28.4 64.1 64.1 6.2 9.9 7.0 314.5 340.5 0.00 0.2283327 60.3
2021-10-14 11:50:00 64.6 25.9 28.8 64.6 64.6 3.3 8.5 5.0 310.4 329.9 0.00 0.2299286 60.7
2021-10-14 11:55:00 65.4 24.5 28.1 65.4 65.4 6.3 10.6 5.2 1.6 343.9 0.00 0.2319983 61.1
2021-10-14 12:00:00 66.0 24.4 28.6 66.0 66.0 2.6 5.1 3.1 19.3 23.6 0.00 0.2318635 61.5
2021-10-14 12:05:00 65.6 24.8 28.6 65.6 65.6 3.1 8.5 5.3 321.3 335.3 0.00 0.2325614 61.9
2021-10-14 12:10:00 65.8 25.2 29.2 65.8 65.8 2.6 8.3 4.2 306.5 303.2 0.00 0.2336378 62.3
2021-10-14 12:15:00 68.3 21.3 27.1 68.3 68.3 12.8 13.1 8.9 276.8 266.9 0.00 0.2357929 62.7
2021-10-14 12:20:00 67.9 21.3 26.8 67.9 67.9 12.1 14.7 11.4 214.9 252.1 0.00 0.2367834 63.1
2021-10-14 12:25:00 67.8 21.8 27.3 67.8 67.8 10.5 17.8 12.8 271.6 254.0 0.00 0.2372546 63.5
2021-10-14 12:30:00 67.8 21.2 26.7 67.8 67.8 19.4 19.4 12.4 244.8 274.6 0.00 0.2376153 63.9
2021-10-14 12:35:00 67.9 21.4 27.0 67.9 67.9 9.7 16.0 12.0 269.5 259.7 0.00 0.2378257 64.2
2021-10-14 12:40:00 67.5 21.5 26.8 67.5 67.5 10.8 16.5 12.0 244.8 245.0 0.00 0.2380135 64.6
2021-10-14 12:45:00 68.1 21.1 26.7 68.1 68.1 14.6 17.8 12.5 269.2 246.3 0.00 0.2378944 64.9
2021-10-14 12:50:00 67.8 20.6 26.0 67.8 67.8 12.1 20.6 15.6 272.8 257.8 0.00 0.2377530 65.2
2021-10-14 12:55:00 67.7 21.0 26.3 67.7 67.7 7.4 14.9 11.1 263.1 258.3 0.00 0.2367761 65.5
2021-10-14 13:00:00 68.6 20.2 26.2 68.6 68.6 12.6 16.4 11.3 248.0 244.9 0.00 0.2365874 65.8
2021-10-14 13:05:00 68.5 20.5 26.5 68.5 68.5 9.9 15.5 11.7 248.7 237.6 0.00 0.2354006 66.1
2021-10-14 13:10:00 69.2 19.9 26.3 69.2 69.2 9.0 12.4 9.4 260.3 239.4 0.00 0.2340602 66.3
2021-10-14 13:15:00 70.1 19.7 26.7 70.1 70.1 12.8 17.6 12.0 254.5 243.9 0.00 0.2330744 66.6
2021-10-14 13:20:00 70.3 17.8 24.5 70.3 70.3 9.9 19.9 11.8 250.7 260.6 0.00 0.2321023 66.9
2021-10-14 13:25:00 70.1 17.4 23.8 70.1 70.1 14.2 16.7 12.9 271.2 253.0 0.00 0.2309942 67.1
2021-10-14 13:30:00 70.2 17.4 23.8 70.2 70.2 18.3 18.3 14.5 261.1 257.8 0.00 0.2295405 67.4
2021-10-14 13:35:00 69.7 17.2 23.1 69.7 69.7 9.0 17.4 12.7 239.4 244.7 0.00 0.2281037 67.6
2021-10-14 13:40:00 70.0 16.6 22.6 70.0 70.0 17.2 20.6 15.0 251.0 254.7 0.00 0.2265972 67.9
2021-10-14 13:45:00 70.5 16.9 23.4 70.5 70.5 12.2 17.2 11.9 264.9 251.0 0.00 0.2251846 68.1
2021-10-14 13:50:00 69.7 16.6 22.3 69.7 69.7 10.5 18.0 13.8 258.0 253.2 0.00 0.2228523 68.3
2021-10-14 13:55:00 70.5 17.0 23.6 70.5 70.5 16.2 19.2 12.6 258.3 255.7 0.00 0.2203427 68.5
2021-10-14 14:00:00 70.6 16.3 22.7 70.6 70.6 9.0 19.2 11.6 221.2 250.6 0.00 0.2184631 68.7
2021-10-14 14:05:00 70.8 17.0 23.7 70.8 70.8 12.2 12.8 10.0 190.0 231.9 0.00 0.2159805 68.9
2021-10-14 14:10:00 70.8 16.7 23.3 70.8 70.8 11.7 17.2 11.7 273.1 232.9 0.00 0.2135570 69.1
2021-10-14 14:15:00 70.3 16.0 21.9 70.3 70.3 14.2 17.2 13.4 226.2 239.6 0.00 0.2115846 69.3
2021-10-14 14:20:00 70.9 15.8 22.1 70.9 70.9 13.7 17.1 12.7 237.2 234.5 0.00 0.2082895 69.5
2021-10-14 14:25:00 70.9 16.5 23.2 70.9 70.9 13.7 15.6 12.4 252.5 242.7 0.00 0.2051579 69.7
2021-10-14 14:30:00 70.9 16.5 23.2 70.9 70.9 10.6 16.9 12.7 248.9 251.2 0.00 0.2021439 69.8
2021-10-14 14:35:00 71.7 16.9 24.4 71.7 71.7 21.0 21.0 12.8 242.8 249.4 0.00 0.1996944 70.0
2021-10-14 14:40:00 71.1 17.7 25.1 71.1 71.1 9.4 18.1 14.6 239.7 261.2 0.00 0.1961014 70.1
2021-10-14 14:45:00 71.6 16.4 23.6 71.6 71.6 16.7 19.4 13.3 261.6 245.1 0.00 0.1931795 70.3
2021-10-14 14:50:00 71.2 17.1 24.2 71.2 71.2 10.1 15.5 12.2 255.9 237.2 0.00 0.1885842 70.4
2021-10-14 14:55:00 71.7 16.9 24.4 71.7 71.7 11.0 19.4 13.1 231.2 249.6 0.00 0.1856777 70.5
2021-10-14 15:00:00 71.7 16.9 24.3 71.7 71.7 15.1 17.6 13.5 231.6 247.9 0.00 0.1823672 70.6
2021-10-14 15:05:00 71.1 16.6 23.5 71.1 71.1 16.7 20.1 15.7 260.9 255.4 0.00 0.1787241 70.7
2021-10-14 15:10:00 71.7 16.5 23.8 71.7 71.7 13.5 15.8 12.3 253.9 234.6 0.00 0.1740494 70.8
2021-10-14 15:15:00 72.2 16.0 23.5 72.2 72.2 17.1 19.0 13.0 254.5 242.7 0.00 0.1704665 70.9
2021-10-14 15:20:00 70.9 15.9 22.3 70.9 70.9 13.7 20.5 16.3 251.6 263.4 0.00 0.1662895 71.0
2021-10-14 15:25:00 72.3 16.2 23.8 72.3 72.3 14.6 16.4 11.8 239.9 249.6 0.00 0.1620036 71.0
2021-10-14 15:30:00 71.7 16.8 24.3 71.7 71.7 12.8 19.2 13.6 238.8 244.5 0.00 0.1579586 71.1
2021-10-14 15:35:00 71.7 16.9 24.3 71.7 71.7 10.1 19.2 13.8 236.2 238.9 0.00 0.1533991 71.1
2021-10-14 15:40:00 71.1 16.0 22.6 71.1 71.1 9.7 24.0 14.8 257.6 247.8 0.00 0.1492763 71.2
2021-10-14 15:45:00 71.1 16.3 23.1 71.1 71.1 19.9 21.7 15.2 269.9 249.7 0.00 0.1448254 71.2
2021-10-14 15:50:00 70.8 16.3 22.9 70.8 70.8 12.4 23.2 16.8 251.7 258.7 0.00 0.1403284 71.2
2021-10-14 15:55:00 71.6 16.2 23.2 71.6 71.6 15.6 20.1 14.2 265.5 258.8 0.00 0.1357893 71.2
2021-10-14 16:00:00 71.1 16.9 23.9 71.1 71.1 12.8 21.0 16.0 233.2 254.3 0.00 0.1309913 71.1
2021-10-14 16:05:00 71.0 17.2 24.3 71.0 71.0 13.1 17.1 13.5 238.0 250.0 0.00 0.1271627 71.1
2021-10-14 16:10:00 71.1 16.0 22.6 71.1 71.1 16.7 18.5 13.6 272.0 241.5 0.00 0.1225787 71.0
2021-10-14 16:15:00 70.3 16.0 22.0 70.3 70.3 14.0 20.8 16.6 247.5 258.7 0.00 0.1177872 71.0
2021-10-14 16:20:00 70.6 15.5 21.4 70.6 70.6 21.5 21.5 15.0 239.3 246.5 0.00 0.1138281 70.9
2021-10-14 16:25:00 70.2 15.6 21.2 70.2 70.2 14.9 20.8 16.1 251.1 240.6 0.00 0.1087689 70.8
2021-10-14 16:30:00 70.2 15.5 21.1 70.2 70.2 12.2 19.2 15.6 223.7 241.0 0.00 0.1043319 70.8
2021-10-14 16:35:00 69.7 15.6 20.8 69.7 69.7 13.5 23.9 17.6 255.0 245.7 0.00 0.0993889 70.7
2021-10-14 16:40:00 69.7 15.2 20.2 69.7 69.7 16.7 23.2 16.7 253.0 249.5 0.00 0.0947960 70.6
2021-10-14 16:45:00 69.4 15.4 20.3 69.4 69.4 18.7 24.8 17.5 246.5 244.4 0.00 0.0897433 70.5
2021-10-14 16:50:00 69.3 15.8 20.9 69.3 69.3 18.9 24.8 17.5 256.5 251.5 0.00 0.0848291 70.4
2021-10-14 16:55:00 69.4 15.4 20.4 69.4 69.4 18.1 20.6 15.5 257.5 251.8 0.00 0.0805579 70.3
2021-10-14 17:00:00 69.2 14.7 19.0 69.2 69.2 16.7 21.5 17.3 240.5 250.9 0.00 0.0758019 70.3
2021-10-14 17:05:00 68.7 15.2 19.4 68.7 68.7 15.6 21.0 17.4 237.5 254.0 0.00 0.0710562 70.1
2021-10-14 17:10:00 68.9 16.0 20.9 68.9 68.9 13.0 19.8 14.3 254.7 250.1 0.00 0.0660912 70.0
2021-10-14 17:15:00 68.8 16.3 21.3 68.8 68.8 13.9 15.3 12.8 245.4 249.2 0.00 0.0613866 69.9
2021-10-14 17:20:00 68.6 16.0 20.6 68.6 68.6 18.5 19.8 14.5 232.4 241.3 0.00 0.0566560 69.8
2021-10-14 17:25:00 68.1 16.2 20.5 68.1 68.1 18.1 24.0 18.0 239.4 246.1 0.00 0.0520775 69.7
2021-10-14 17:30:00 68.1 16.5 20.9 68.1 68.1 14.9 20.8 15.6 257.8 247.7 0.00 0.0474030 69.6
2021-10-14 17:35:00 67.8 16.0 19.9 67.8 67.8 18.7 24.0 17.8 251.1 247.4 0.00 0.0428108 69.4
2021-10-14 17:40:00 67.6 16.3 20.2 67.6 67.6 16.9 21.4 16.6 231.6 251.8 0.00 0.0382469 69.3
2021-10-14 17:45:00 67.4 16.7 20.6 67.4 67.4 17.1 18.1 14.4 250.8 239.9 0.00 0.0336823 69.2
2021-10-14 17:50:00 67.1 16.9 20.7 67.1 67.1 12.1 19.8 14.7 243.9 245.3 0.00 0.0292773 69.0
2021-10-14 17:55:00 66.7 17.0 20.5 66.7 66.7 11.2 17.8 13.9 238.5 251.2 0.00 0.0246989 68.8
2021-10-14 18:00:00 66.6 16.9 20.2 66.6 66.6 17.4 18.9 14.1 246.1 243.9 0.00 0.0199815 68.7
2021-10-14 18:05:00 66.1 18.1 21.4 66.1 66.1 9.6 17.2 12.5 274.8 247.5 0.00 0.0155568 68.5
2021-10-14 18:10:00 65.8 18.6 21.9 65.8 65.8 12.8 17.6 12.4 241.3 245.0 0.00 0.0107379 68.4
2021-10-14 18:15:00 65.2 19.4 22.3 65.2 65.2 10.5 13.0 10.1 243.3 249.1 0.00 0.0057891 68.2
2021-10-14 18:20:00 64.3 19.9 22.3 64.3 64.3 15.6 15.6 10.3 244.3 249.5 0.00 0.0014633 68.0
2021-10-14 18:25:00 64.1 20.1 22.3 64.1 64.1 9.6 12.8 10.2 232.2 247.8 0.00 0.0000000 67.8
2021-10-14 18:30:00 64.1 19.7 21.8 64.1 64.1 13.7 14.6 11.1 253.4 249.0 0.00 0.0000000 67.7
2021-10-14 18:35:00 63.7 20.0 21.8 63.7 63.7 14.0 14.0 10.1 261.8 248.1 0.00 0.0000000 67.5
2021-10-14 18:40:00 63.7 20.1 21.9 63.7 63.7 10.6 14.2 10.1 243.8 242.5 0.00 0.0000000 67.3
2021-10-14 18:45:00 63.7 20.5 22.4 63.7 63.7 9.2 14.6 10.3 238.1 242.1 0.00 0.0000000 67.1
2021-10-14 18:50:00 63.4 20.9 22.6 63.4 63.4 11.9 13.3 10.7 259.7 245.5 0.00 0.0000000 67.0
2021-10-14 18:55:00 63.1 21.4 23.0 63.1 63.1 13.3 13.3 9.8 263.8 242.0 0.00 0.0000000 66.8
2021-10-14 19:00:00 62.7 21.8 23.1 62.7 62.7 11.7 12.8 10.4 264.4 248.2 0.00 0.0000000 66.6
2021-10-14 19:05:00 62.6 21.8 23.0 62.6 62.6 9.4 13.9 10.9 251.7 248.2 0.00 0.0000000 66.5
2021-10-14 19:10:00 62.6 21.5 22.7 62.6 62.6 10.8 15.3 11.4 252.5 252.7 0.00 0.0000000 66.3
2021-10-14 19:15:00 62.6 21.4 22.5 62.6 62.6 11.3 14.4 10.5 243.3 252.2 0.00 0.0000000 66.1
2021-10-14 19:20:00 62.3 21.8 22.7 62.3 62.3 6.7 11.2 9.0 258.8 249.0 0.00 0.0000000 66.0
2021-10-14 19:25:00 62.0 22.5 23.2 62.0 62.0 6.2 12.1 7.9 266.9 246.9 0.00 0.0000000 65.8
2021-10-14 19:30:00 61.2 23.2 23.3 61.2 61.2 6.5 8.7 6.2 254.7 249.3 0.00 0.0000000 65.7
2021-10-14 19:35:00 60.7 23.8 23.5 60.7 60.7 5.6 10.3 7.6 249.3 250.0 0.00 0.0000000 65.5
2021-10-14 19:40:00 60.5 23.8 23.3 60.5 60.5 9.0 11.2 7.9 251.7 253.1 0.00 0.0000000 65.4
2021-10-14 19:45:00 60.6 23.6 23.2 60.6 60.6 8.8 11.2 8.8 242.6 252.9 0.00 0.0000000 65.2
2021-10-14 19:50:00 60.3 23.8 23.1 60.3 60.3 8.5 9.2 7.7 227.4 251.2 0.00 0.0000000 65.1
2021-10-14 19:55:00 60.0 24.2 23.3 60.0 60.0 7.8 9.2 7.5 255.0 254.7 0.00 0.0000000 64.9
2021-10-14 20:00:00 59.5 24.7 23.3 59.5 59.5 8.1 9.4 7.3 272.7 261.1 0.00 0.0000000 64.8
2021-10-14 20:05:00 58.7 25.9 23.7 58.7 58.7 6.3 8.0 6.0 295.4 284.0 0.00 0.0000000 64.6
2021-10-14 20:10:00 57.8 27.3 24.3 57.8 57.8 6.0 6.9 5.4 329.4 323.1 0.00 0.0000000 64.5
2021-10-14 20:15:00 57.2 27.8 24.2 57.2 57.2 5.1 6.3 5.1 320.6 324.6 0.00 0.0000000 64.3
2021-10-14 20:20:00 57.2 27.0 23.5 57.2 57.2 7.4 8.5 6.7 315.4 323.5 0.00 0.0000000 64.2
2021-10-14 20:25:00 59.2 24.5 22.9 59.2 59.2 7.4 13.0 9.7 291.5 303.2 0.00 0.0000000 64.0
2021-10-14 20:30:00 58.3 25.9 23.4 58.3 58.3 6.0 10.1 7.2 288.0 297.8 0.00 0.0000000 63.9
2021-10-14 20:35:00 57.7 26.6 23.6 57.7 57.7 5.5 8.5 6.6 273.2 282.6 0.00 0.0000000 63.8
2021-10-14 20:40:00 56.2 28.7 24.1 56.2 56.2 4.0 6.3 5.1 276.7 279.1 0.00 0.0000000 63.6
2021-10-14 20:45:00 55.5 28.5 23.3 55.5 55.5 3.5 4.9 3.9 340.2 334.4 0.00 0.0000000 63.5
2021-10-14 20:50:00 56.8 25.8 22.1 56.8 56.8 4.4 6.0 4.7 337.7 323.3 0.00 0.0000000 63.3
2021-10-14 20:55:00 56.1 29.8 24.9 56.1 56.1 4.4 6.5 4.9 0.0 322.8 0.00 0.0000000 63.2
2021-10-14 21:00:00 55.6 34.1 27.8 55.6 55.6 8.3 10.6 6.7 5.5 3.7 0.00 0.0000000 63.1
2021-10-14 21:05:00 54.8 38.5 30.0 54.8 54.8 8.5 11.9 7.5 8.0 14.0 0.00 0.0000000 62.9
2021-10-14 21:10:00 54.2 40.7 30.8 54.2 54.2 8.3 11.5 8.7 35.6 23.4 0.00 0.0000000 62.8
2021-10-14 21:15:00 53.4 42.5 31.2 53.4 53.4 7.8 9.6 7.3 21.6 28.7 0.00 0.0000000 62.6
2021-10-14 21:20:00 53.1 43.6 31.5 53.1 53.1 5.6 7.4 5.7 20.1 17.4 0.00 0.0000000 62.5
2021-10-14 21:25:00 52.8 44.7 31.9 52.8 52.8 5.8 8.1 5.6 25.2 27.3 0.00 0.0000000 62.4
2021-10-14 21:30:00 52.7 45.2 32.0 52.7 52.7 7.1 9.2 6.1 48.7 34.9 0.00 0.0000000 62.2
2021-10-14 21:35:00 52.8 44.7 31.9 52.8 52.8 6.5 8.8 6.7 25.9 36.7 0.00 0.0000000 62.1
2021-10-14 21:40:00 52.2 45.8 31.9 52.2 52.2 5.3 7.1 5.4 327.4 339.9 0.00 0.0000000 62.0
2021-10-14 21:45:00 51.5 46.4 31.6 51.5 51.5 5.3 7.1 5.3 315.9 344.1 0.00 0.0000000 61.8
2021-10-14 21:50:00 51.6 46.2 31.6 51.6 51.6 6.2 7.1 5.4 337.6 347.6 0.00 0.0000000 61.7
2021-10-14 21:55:00 51.1 46.4 31.3 51.1 51.1 7.2 7.2 5.5 331.8 352.8 0.00 0.0000000 61.6
2021-10-14 22:00:00 51.0 46.9 31.4 51.0 51.0 6.3 8.0 6.0 34.9 28.1 0.00 0.0000000 61.5
2021-10-14 22:05:00 51.5 45.4 31.0 51.5 51.5 5.8 9.7 7.1 22.1 34.5 0.00 0.0000000 61.4
2021-10-14 22:10:00 51.7 44.6 30.8 51.7 51.7 7.4 11.7 8.2 43.0 41.6 0.00 0.0000000 61.3
2021-10-14 22:15:00 51.5 45.1 30.9 51.5 51.5 5.6 9.4 7.1 45.4 39.2 0.00 0.0000000 61.1
2021-10-14 22:20:00 51.2 45.5 30.9 51.2 51.2 4.2 10.5 6.4 7.8 26.5 0.00 0.0000000 61.0
2021-10-14 22:25:00 51.0 45.5 30.7 51.0 51.0 3.8 8.1 5.4 10.5 28.2 0.00 0.0000000 60.9
2021-10-14 22:30:00 50.8 45.8 30.7 50.8 50.8 1.7 7.2 3.8 46.7 7.4 0.00 0.0000000 60.7
2021-10-14 22:35:00 50.4 46.9 30.8 50.4 50.4 4.4 4.7 2.7 336.6 328.0 0.00 0.0000000 60.6
2021-10-14 22:40:00 48.5 51.7 31.6 47.1 48.5 4.0 5.5 4.2 312.4 303.6 0.00 0.0000000 60.5
2021-10-14 22:45:00 47.7 54.0 31.8 45.9 47.7 4.4 6.0 4.7 299.5 303.1 0.00 0.0000000 60.4
2021-10-14 22:50:00 47.3 55.5 32.2 46.0 47.3 3.7 5.3 4.4 297.0 302.3 0.00 0.0000000 60.3
2021-10-14 22:55:00 46.7 57.1 32.3 45.3 46.7 3.7 4.4 3.8 298.3 296.7 0.00 0.0000000 60.2
2021-10-14 23:00:00 46.2 58.2 32.3 44.3 46.2 4.2 4.9 4.4 330.6 307.2 0.00 0.0000000 60.0
2021-10-14 23:05:00 46.2 57.5 32.0 44.3 46.2 4.2 4.9 4.1 323.3 318.9 0.00 0.0000000 59.9
2021-10-14 23:10:00 45.8 58.3 32.0 43.6 45.8 4.6 4.7 4.1 325.9 324.7 0.00 0.0000000 59.8
2021-10-14 23:15:00 45.7 58.3 31.9 44.5 45.7 3.3 6.0 4.9 322.4 320.6 0.00 0.0000000 59.7
2021-10-14 23:20:00 45.7 58.3 31.9 44.3 45.7 3.5 4.0 3.6 327.1 317.9 0.00 0.0000000 59.6
2021-10-14 23:25:00 45.8 57.5 31.6 45.8 45.8 2.4 3.5 2.7 301.9 317.1 0.00 0.0000000 59.4
2021-10-14 23:30:00 45.8 57.4 31.6 45.8 45.8 1.5 4.2 2.9 274.4 288.7 0.00 0.0000000 59.3
2021-10-14 23:35:00 45.6 57.7 31.5 44.4 45.6 3.3 4.7 2.7 261.4 241.4 0.00 0.0000000 59.2
2021-10-14 23:40:00 45.1 58.4 31.4 45.1 45.1 1.9 4.6 2.8 229.0 247.1 0.00 0.0000000 59.0
2021-10-14 23:45:00 45.2 58.1 31.4 43.8 45.2 3.5 5.1 3.1 259.3 252.7 0.00 0.0000000 58.9
2021-10-14 23:50:00 45.5 57.4 31.3 44.2 45.5 3.3 5.5 3.8 293.1 264.0 0.00 0.0000000 58.8
2021-10-14 23:55:00 45.4 58.4 31.6 45.4 45.4 1.7 3.5 2.7 313.3 310.5 0.00 0.0000000 58.7
2021-10-15 00:00:00 45.6 57.6 31.5 45.6 45.6 2.4 3.3 2.5 316.0 295.6 0.00 0.0000000 58.6

Data is courtesy of the NM Climate Center. DO NOT USE IN LEGAL PROCEEDINGS.